This is the latest recevied weather packets stored in our database for station/object DO9LL-1. If no packets are shown the sender has not sent any weather packets the latest 10 day(s).
| Time | Temp. | Humidity | Pressure | Rain* | Wind** | Luminosity | Snow |
|---|---|---|---|---|---|---|---|
| 1777759650 | 14.44° C | 93% | 1013.2 hPa | 0.25 mm | - | - | - |
| 1777759046 | 14.44° C | 93% | 1013.3 hPa | 0.76 mm | - | - | - |
| 1777758443 | 14.44° C | 93% | 1013.3 hPa | 1.27 mm | - | - | - |
| 1777757839 | 14.44° C | 93% | 1013.2 hPa | 1.52 mm | - | - | - |
| 1777757236 | 15° C | 92% | 1013 hPa | 1.52 mm | - | - | - |
| 1777756655 | 15° C | 91% | 1013.4 hPa | 3.05 mm | - | - | - |
| 1777756050 | 15° C | 90% | 1014 hPa | 4.06 mm | - | - | - |
| 1777755447 | 15° C | 90% | 1014.3 hPa | 4.06 mm | - | - | - |
| 1777754844 | 15° C | 91% | 1014.5 hPa | 4.57 mm | - | - | - |
| 1777754240 | 15° C | 91% | 1014.3 hPa | 5.84 mm | - | - | - |
| 1777753637 | 15° C | 91% | 1014.6 hPa | 5.84 mm | - | - | - |
| 1777753054 | 15.56° C | 91% | 1015 hPa | 4.32 mm | - | - | - |
| 1777752451 | 15.56° C | 89% | 1015.1 hPa | 3.05 mm | - | - | - |
| 1777751848 | 16.11° C | 86% | 1015.4 hPa | 2.54 mm | - | - | - |
| 1777751245 | 18.89° C | 76% | 1014.8 hPa | 1.52 mm | - | - | - |
| 1777750642 | 18.89° C | 73% | 1014.4 hPa | 0 mm | - | - | - |
| 1777750038 | 18.89° C | 75% | 1013.9 hPa | 0 mm | - | - | - |
| 1777749455 | 18.89° C | 74% | 1013.3 hPa | 0 mm | - | - | - |
| 1777748852 | 18.89° C | 73% | 1013.2 hPa | 0 mm | - | - | - |
| 1777748250 | 19.44° C | 70% | 1013.2 hPa | 0 mm | - | - | - |
| 1777747647 | 20° C | 69% | 1013.2 hPa | 0 mm | - | - | - |
| 1777747042 | 20° C | 67% | 1013.3 hPa | 0 mm | - | - | - |
| 1777746439 | 20.56° C | 66% | 1013.3 hPa | 0 mm | - | - | - |
| 1777745836 | 21.11° C | 65% | 1013.3 hPa | 0 mm | - | - | - |
| 1777745258 | 21.67° C | 63% | 1013.4 hPa | 0 mm | - | - | - |
* Rain latest hour (hover to see other rain measurements)
** Current wind speed in m/s (hover to see current wind gust speed)